Time;durP1;ratioP1;P1;durP2;ratioP2;P2;SDS_P1;SDS_P2;PMS_P1;PMS_P2;Temp;Humidity;BMP_temperature;BMP_pressure;BME280_temperature;BME280_humidity;BME280_pressure;Samples;Min_cycle;Max_cycle;Signal;HPM_P1;HPM_P2
2024/04/14 00:00:32;;;;;;;;;4.00;4.00;;;;;20.25;46.43;102090.81;5455751;26;64521;-72
2024/04/14 00:02:58;;;;;;;;;4.00;3.50;;;;;20.24;46.68;102089.97;5458199;25;67296;-72
2024/04/14 00:05:24;;;;;;;;;5.50;4.00;;;;;20.24;46.07;102100.72;5418667;25;46308;-72
2024/04/14 00:07:49;;;;;;;;;3.00;3.00;;;;;20.22;45.67;102099.31;5457627;25;62521;-72
2024/04/14 00:10:15;;;;;;;;;5.25;4.00;;;;;20.19;45.95;102105.94;5454189;26;66362;-72
2024/04/14 00:12:40;;;;;;;;;4.50;2.50;;;;;20.17;45.81;102104.53;5457343;25;44445;-72
2024/04/14 00:15:06;;;;;;;;;6.00;4.50;;;;;20.13;46.69;102114.88;5453600;26;71291;-72
2024/04/14 00:17:31;;;;;;;;;3.25;3.25;;;;;20.09;46.79;102109.13;5461557;25;44360;-72
2024/04/14 00:19:56;;;;;;;;;4.75;4.25;;;;;20.06;46.48;102112.22;5456360;26;64768;-72
2024/04/14 00:22:22;;;;;;;;;4.25;2.25;;;;;20.01;46.51;102109.34;5458731;26;61272;-72
2024/04/14 00:24:47;;;;;;;;;5.75;4.00;;;;;19.93;46.27;102101.50;5454788;26;65788;-73
2024/04/14 00:27:13;;;;;;;;;5.00;3.00;;;;;19.88;45.70;102110.22;5485100;25;63519;-72
2024/04/14 00:29:38;;;;;;;;;2.25;2.25;;;;;19.85;46.31;102112.50;5456057;25;57924;-72
2024/04/14 00:32:03;;;;;;;;;3.00;3.00;;;;;19.78;45.98;102104.47;5444184;26;70934;-72
2024/04/14 00:34:29;;;;;;;;;6.00;4.00;;;;;19.75;45.99;102102.19;5459648;25;65811;-72
2024/04/14 00:36:54;;;;;;;;;4.00;3.00;;;;;19.71;45.27;102107.16;5453093;26;68266;-73
2024/04/14 00:39:19;;;;;;;;;3.50;3.50;;;;;19.67;45.77;102116.69;5454201;25;63554;-72
2024/04/14 00:41:45;;;;;;;;;5.00;4.00;;;;;19.61;45.88;102109.47;5444425;26;69041;-72
2024/04/14 00:44:10;;;;;;;;;5.00;4.00;;;;;19.55;46.09;102110.34;5459380;25;65898;-72
2024/04/14 00:46:36;;;;;;;;;2.75;2.75;;;;;19.53;45.68;102115.91;5459102;25;67827;-72
2024/04/14 00:49:02;;;;;;;;;4.00;3.75;;;;;19.48;46.20;102116.56;5428964;26;58863;-72
2024/04/14 00:51:27;;;;;;;;;5.25;3.00;;;;;19.48;45.51;102121.09;5460344;26;43852;-72
2024/04/14 00:53:53;;;;;;;;;3.75;3.00;;;;;19.45;45.53;102118.81;5460567;25;45551;-71
2024/04/14 00:56:18;;;;;;;;;3.00;3.00;;;;;19.41;45.40;102120.28;5461802;25;67743;-72
2024/04/14 00:58:46;;;;;;;;;2.00;2.00;;;;;19.33;45.43;102114.09;5428069;26;43955;-72
2024/04/14 01:01:11;;;;;;;;;3.75;2.75;;;;;19.29;45.13;102117.41;5451216;26;43921;-72
2024/04/14 01:03:36;;;;;;;;;2.75;2.00;;;;;19.27;44.81;102120.31;5417704;26;72127;-71
2024/04/14 01:06:02;;;;;;;;;2.00;2.00;;;;;19.23;45.27;102122.56;5456085;26;69634;-72
2024/04/14 01:08:28;;;;;;;;;5.00;3.00;;;;;19.21;45.27;102121.97;5444963;26;44341;-72
2024/04/14 01:10:53;;;;;;;;;3.50;3.00;;;;;19.17;45.15;102126.09;5454694;26;44029;-72
2024/04/14 01:13:19;;;;;;;;;3.00;3.00;;;;;19.13;44.60;102124.06;5460132;26;67490;-72
2024/04/14 01:15:44;;;;;;;;;4.50;3.50;;;;;19.09;45.63;102118.25;5461733;25;59826;-72
2024/04/14 01:18:09;;;;;;;;;3.50;3.50;;;;;19.06;45.08;102127.59;5460327;26;66341;-72
2024/04/14 01:20:35;;;;;;;;;4.00;3.50;;;;;19.03;44.83;102136.06;5451385;26;66760;-72
2024/04/14 01:23:00;;;;;;;;;2.00;2.00;;;;;18.95;44.40;102130.88;5437730;26;65788;-72
2024/04/14 01:25:26;;;;;;;;;4.25;2.75;;;;;18.93;44.21;102135.59;5456155;25;52435;-72
2024/04/14 01:27:51;;;;;;;;;5.00;3.00;;;;;18.89;44.46;102145.09;5443929;26;43995;-72
2024/04/14 01:30:16;;;;;;;;;5.00;3.00;;;;;18.84;44.00;102153.78;5459322;25;65261;-72
2024/04/14 01:32:42;;;;;;;;;2.75;2.75;;;;;18.77;44.58;102150.28;5459402;25;45821;-71
2024/04/14 01:35:07;;;;;;;;;3.00;3.00;;;;;18.72;43.89;102142.81;5451464;25;63821;-72
2024/04/14 01:37:33;;;;;;;;;3.00;2.00;;;;;18.70;44.34;102141.38;5464914;25;48864;-72
2024/04/14 01:39:58;;;;;;;;;4.00;2.25;;;;;18.62;44.95;102145.91;5454289;26;43996;-72
2024/04/14 01:42:24;;;;;;;;;3.00;3.00;;;;;18.57;43.59;102144.88;5464911;25;45392;-71
2024/04/14 01:44:49;;;;;;;;;4.00;3.00;;;;;18.55;44.89;102147.72;5464240;25;62268;-72
2024/04/14 01:47:14;;;;;;;;;3.25;3.00;;;;;18.49;44.45;102149.41;5466861;26;64055;-72
2024/04/14 01:49:40;;;;;;;;;6.00;3.00;;;;;18.45;44.53;102163.41;5459547;25;68650;-72
2024/04/14 01:52:05;;;;;;;;;5.00;4.75;;;;;18.37;43.22;102161.75;5463692;26;53396;-72
2024/04/14 01:54:31;;;;;;;;;3.50;3.50;;;;;18.36;43.75;102166.28;5460704;25;47098;-72
2024/04/14 01:56:56;;;;;;;;;6.00;4.00;;;;;18.34;44.52;102159.47;5462226;25;44141;-72
2024/04/14 01:59:21;;;;;;;;;4.75;4.00;;;;;18.32;44.45;102170.41;5460261;26;53608;-72
2024/04/14 02:01:47;;;;;;;;;3.75;2.50;;;;;18.28;44.14;102165.66;5459865;25;69710;-72
2024/04/14 02:04:12;;;;;;;;;3.50;3.50;;;;;18.23;43.67;102157.38;5434561;26;68267;-72
2024/04/14 02:06:37;;;;;;;;;6.00;4.00;;;;;18.20;43.56;102158.59;5448601;26;67128;-72
2024/04/14 02:09:03;;;;;;;;;4.50;3.00;;;;;18.12;43.59;102153.41;5455131;25;67081;-72
2024/04/14 02:11:29;;;;;;;;;3.00;3.00;;;;;18.12;44.81;102162.28;5475633;25;72295;-72
2024/04/14 02:13:54;;;;;;;;;2.25;2.00;;;;;18.09;44.76;102160.00;5448303;26;44426;-72
2024/04/14 02:16:19;;;;;;;;;3.00;3.00;;;;;18.07;44.98;102164.72;5460985;26;44035;-72
2024/04/14 02:18:45;;;;;;;;;2.25;2.25;;;;;18.03;44.20;102168.84;5448035;25;51320;-72
2024/04/14 02:21:10;;;;;;;;;3.50;3.50;;;;;17.99;44.06;102173.75;5455759;25;45013;-74
2024/04/14 02:23:37;;;;;;;;;2.25;2.25;;;;;17.96;43.83;102171.47;5456526;25;46877;-72
2024/04/14 02:26:02;;;;;;;;;3.50;3.00;;;;;17.91;44.23;102165.88;5450704;26;43983;-73
2024/04/14 02:28:28;;;;;;;;;6.00;4.00;;;;;17.88;45.16;102171.66;5455818;25;55730;-72
2024/04/14 02:30:53;;;;;;;;;4.00;4.00;;;;;17.84;45.80;102175.75;5451191;25;59594;-72
2024/04/14 02:33:18;;;;;;;;;3.00;3.00;;;;;17.78;45.78;102169.31;5455000;26;56899;-72
2024/04/14 02:36:00;;;;;;;;;3.00;3.00;;;;;17.72;44.85;102176.28;5452512;26;63260;-72
2024/04/14 02:38:26;;;;;;;;;4.25;3.00;;;;;17.68;46.33;102179.56;5439172;26;44305;-71
2024/04/14 02:41:02;;;;;;;;;4.00;4.00;;;;;17.61;45.86;102179.53;5451272;26;44771;-72
2024/04/14 02:43:27;;;;;;;;;3.00;2.75;;;;;17.60;46.82;102178.69;5443939;26;44868;-71
2024/04/14 02:45:53;;;;;;;;;5.00;4.00;;;;;17.56;45.77;102179.28;5448262;26;44155;-72
2024/04/14 02:48:19;;;;;;;;;4.75;4.25;;;;;17.51;46.76;102187.94;5453645;26;46069;-72
2024/04/14 02:50:44;;;;;;;;;3.00;3.00;;;;;17.45;45.78;102194.88;5453193;26;44814;-72
2024/04/14 02:53:10;;;;;;;;;4.00;4.00;;;;;17.40;46.12;102191.97;5446493;25;44064;-72
2024/04/14 02:55:36;;;;;;;;;4.00;3.00;;;;;17.33;47.20;102185.72;5452469;26;44568;-72
2024/04/14 02:58:01;;;;;;;;;3.75;3.75;;;;;17.27;46.96;102184.63;5450200;25;44993;-72
2024/04/14 03:00:30;;;;;;;;;3.00;3.00;;;;;17.23;47.06;102190.59;5452732;26;44833;-72
2024/04/14 03:02:55;;;;;;;;;5.00;2.00;;;;;17.21;46.14;102188.09;5448854;26;67119;-73
2024/04/14 03:05:21;;;;;;;;;4.00;3.00;;;;;17.18;47.08;102188.47;5452658;25;43993;-72
2024/04/14 03:07:47;;;;;;;;;6.00;3.00;;;;;17.15;46.27;102192.38;5451703;25;45454;-73
2024/04/14 03:10:12;;;;;;;;;3.50;3.50;;;;;17.12;46.53;102191.94;5450706;25;71945;-72
2024/04/14 03:12:39;;;;;;;;;5.75;3.00;;;;;17.09;47.12;102192.31;5443489;26;44347;-71
2024/04/14 03:15:05;;;;;;;;;4.25;3.75;;;;;17.05;47.96;102194.56;5452117;26;44385;-72
2024/04/14 03:17:31;;;;;;;;;4.75;4.00;;;;;17.00;46.49;102197.81;5452326;26;48810;-72
2024/04/14 03:19:56;;;;;;;;;2.00;2.00;;;;;16.93;48.58;102191.53;5453508;26;45025;-77
2024/04/14 03:22:21;;;;;;;;;4.25;4.00;;;;;16.91;47.87;102198.94;5450672;26;68786;-73
2024/04/14 03:24:47;;;;;;;;;4.00;3.00;;;;;16.87;47.36;102201.16;5460697;26;44003;-76
2024/04/14 03:27:13;;;;;;;;;3.00;3.00;;;;;16.81;48.63;102203.78;5449874;25;44028;-72
2024/04/14 03:29:38;;;;;;;;;5.00;3.25;;;;;16.71;48.07;102198.72;5452854;25;70303;-74
2024/04/14 03:32:05;;;;;;;;;4.25;4.00;;;;;16.64;48.05;102197.81;5453236;26;44095;-72
2024/04/14 03:34:30;;;;;;;;;3.00;2.00;;;;;16.57;49.93;102203.94;5451732;26;44624;-72
2024/04/14 03:36:55;;;;;;;;;4.75;3.50;;;;;16.50;50.25;102203.03;5453409;26;68305;-72
2024/04/14 03:39:21;;;;;;;;;7.25;4.00;;;;;16.49;48.93;102200.53;5451075;25;71287;-72
2024/04/14 03:41:46;;;;;;;;;6.00;5.00;;;;;16.43;49.24;102200.28;5433711;26;59125;-72
2024/04/14 03:44:12;;;;;;;;;3.50;3.50;;;;;16.41;50.32;102204.16;5419150;26;60970;-72
2024/04/14 03:46:37;;;;;;;;;5.75;4.00;;;;;16.36;49.17;102203.91;5419083;26;44493;-72
2024/04/14 03:49:03;;;;;;;;;6.25;5.00;;;;;16.30;50.72;102203.63;5453305;25;44673;-72
2024/04/14 03:51:28;;;;;;;;;4.00;4.00;;;;;16.27;50.43;102187.94;5453464;25;44321;-72
2024/04/14 03:53:54;;;;;;;;;5.75;4.00;;;;;16.27;50.68;102195.94;5450417;26;44129;-72
2024/04/14 03:56:19;;;;;;;;;12.75;5.50;;;;;16.21;51.02;102191.34;5449609;26;44100;-72
2024/04/14 03:58:44;;;;;;;;;11.50;6.50;;;;;16.18;50.78;102191.72;5452259;25;44070;-72
2024/04/14 04:01:10;;;;;;;;;4.00;2.00;;;;;16.15;50.71;102195.63;5453159;26;52771;-72
2024/04/14 04:03:35;;;;;;;;;9.25;5.25;;;;;16.10;51.43;102195.34;5450734;25;66885;-72
2024/04/14 04:06:02;;;;;;;;;8.75;6.00;;;;;16.07;50.41;102202.91;5448052;26;71459;-72
2024/04/14 04:08:28;;;;;;;;;5.75;5.25;;;;;16.04;52.17;102212.13;5452429;25;45112;-72
2024/04/14 04:11:02;;;;;;;;;6.50;5.00;;;;;15.97;52.10;102208.56;5449862;25;44039;-71
2024/04/14 04:13:27;;;;;;;;;8.25;5.25;;;;;15.90;51.87;102205.78;5452033;25;44473;-71
2024/04/14 04:16:00;;;;;;;;;6.25;6.25;;;;;15.87;52.40;102203.44;5449717;25;47289;-72
2024/04/14 04:18:26;;;;;;;;;12.50;6.00;;;;;15.80;52.98;102214.03;5448769;25;45351;-72
2024/04/14 04:20:55;;;;;;;;;10.75;7.00;;;;;15.73;52.36;102221.13;5451754;25;43920;-72
2024/04/14 04:23:20;;;;;;;;;7.50;6.00;;;;;15.62;52.76;102216.22;5443929;26;44242;-72
2024/04/14 04:25:46;;;;;;;;;7.75;6.00;;;;;15.57;52.17;102219.44;5445844;25;49287;-72
2024/04/14 04:28:11;;;;;;;;;5.50;5.50;;;;;15.54;52.43;102219.81;5451591;26;70687;-72
2024/04/14 04:30:37;;;;;;;;;6.25;6.00;;;;;15.50;52.84;102227.34;5450272;26;68759;-73
2024/04/14 04:33:02;;;;;;;;;14.50;7.25;;;;;15.47;53.31;102225.03;5420952;26;44125;-72
2024/04/14 04:35:27;;;;;;;;;9.25;5.75;;;;;15.41;53.22;102221.25;5447731;25;44699;-72
2024/04/14 04:37:53;;;;;;;;;9.25;7.00;;;;;15.34;53.93;102228.31;5447758;25;67634;-72
2024/04/14 04:40:18;;;;;;;;;10.75;6.50;;;;;15.30;53.44;102225.19;5454721;25;67020;-72
2024/04/14 04:42:44;;;;;;;;;10.75;7.50;;;;;15.25;53.75;102232.91;5454292;26;43820;-71
2024/04/14 04:45:09;;;;;;;;;10.50;6.00;;;;;15.23;53.63;102237.59;5453980;26;67811;-75
2024/04/14 04:47:34;;;;;;;;;9.50;7.75;;;;;15.20;53.87;102240.63;5438029;26;44276;-72
2024/04/14 04:50:00;;;;;;;;;6.50;6.50;;;;;15.16;53.80;102242.00;5449656;26;49830;-72
2024/04/14 04:52:25;;;;;;;;;8.00;7.75;;;;;15.12;54.98;102243.34;5444026;26;64500;-72
2024/04/14 04:54:50;;;;;;;;;13.00;10.75;;;;;15.09;54.06;102241.88;5451780;26;68425;-71
2024/04/14 04:57:16;;;;;;;;;6.00;5.75;;;;;15.07;54.74;102243.03;5452383;25;70581;-72
2024/04/14 04:59:41;;;;;;;;;14.00;11.75;;;;;15.04;54.68;102243.41;5453134;25;62240;-72
2024/04/14 05:02:06;;;;;;;;;12.75;11.25;;;;;14.99;55.28;102247.44;5451074;25;59950;-73
2024/04/14 05:04:32;;;;;;;;;17.00;12.00;;;;;15.00;55.13;102259.78;5447508;25;69402;-72
2024/04/14 05:06:58;;;;;;;;;14.50;10.00;;;;;14.98;54.76;102252.97;5448868;26;69953;-72
2024/04/14 05:09:24;;;;;;;;;11.50;9.75;;;;;14.97;55.34;102256.66;5450130;25;43941;-72
2024/04/14 05:11:49;;;;;;;;;12.25;7.75;;;;;14.95;56.46;102256.81;5449577;26;44027;-75
2024/04/14 05:14:14;;;;;;;;;11.25;8.25;;;;;14.93;56.16;102252.66;5451774;25;64531;-72
2024/04/14 05:16:40;;;;;;;;;13.50;9.25;;;;;14.91;55.91;102246.69;5448962;26;70325;-78
2024/04/14 05:19:05;;;;;;;;;11.00;8.00;;;;;14.92;56.49;102249.16;5446810;26;66486;-72
2024/04/14 05:21:31;;;;;;;;;13.25;9.00;;;;;14.91;56.52;102244.81;5455088;26;44131;-81
2024/04/14 05:23:56;;;;;;;;;12.25;11.00;;;;;14.91;56.98;102252.00;5436488;25;68140;-72
2024/04/14 05:26:21;;;;;;;;;5.50;5.00;;;;;14.90;57.32;102247.69;5447230;26;71980;-75
2024/04/14 05:28:47;;;;;;;;;9.50;9.50;;;;;14.93;57.74;102250.00;5444683;26;68408;-76
2024/04/14 05:31:12;;;;;;;;;11.00;8.25;;;;;14.93;56.94;102255.34;5444887;26;65750;-73
2024/04/14 05:33:38;;;;;;;;;12.75;6.25;;;;;14.93;57.45;102263.34;5448817;26;69451;-72
2024/04/14 05:36:04;;;;;;;;;8.75;8.50;;;;;14.96;57.49;102266.47;5416600;26;45138;-79
2024/04/14 05:38:29;;;;;;;;;11.25;9.25;;;;;14.99;57.98;102268.81;5454440;26;43895;-72
2024/04/14 05:40:54;;;;;;;;;10.50;7.75;;;;;15.02;57.67;102271.13;5452829;25;44078;-72
2024/04/14 05:43:20;;;;;;;;;12.00;7.25;;;;;15.07;57.46;102275.09;5450405;26;69110;-71
2024/04/14 05:45:45;;;;;;;;;14.00;10.00;;;;;15.10;58.11;102270.25;5455143;26;70106;-74
2024/04/14 05:48:11;;;;;;;;;12.00;10.25;;;;;15.12;57.97;102264.72;5461036;26;44063;-72
2024/04/14 05:50:36;;;;;;;;;11.00;10.00;;;;;15.14;57.64;102268.03;5455438;25;44230;-72
2024/04/14 05:53:01;;;;;;;;;11.75;10.25;;;;;15.16;57.13;102274.06;5455142;26;56976;-72
2024/04/14 05:55:27;;;;;;;;;13.00;9.75;;;;;15.16;57.97;102269.53;5455640;26;71693;-73
2024/04/14 05:57:52;;;;;;;;;9.00;5.75;;;;;15.19;58.35;102272.84;5453197;26;68825;-72
2024/04/14 06:00:17;;;;;;;;;6.50;5.75;;;;;15.18;57.53;102276.53;5453147;26;58467;-74
2024/04/14 06:02:43;;;;;;;;;9.75;6.75;;;;;15.14;57.86;102270.69;5447302;25;66739;-71
2024/04/14 06:05:08;;;;;;;;;9.50;7.00;;;;;15.17;58.63;102281.06;5455966;25;73857;-75
2024/04/14 06:07:33;;;;;;;;;11.75;6.50;;;;;15.18;58.08;102281.88;5452136;26;64644;-72
2024/04/14 06:10:00;;;;;;;;;12.00;8.25;;;;;15.18;58.71;102272.03;5454920;25;63142;-77
2024/04/14 06:12:25;;;;;;;;;8.75;7.00;;;;;15.15;57.92;102275.06;5452824;25;44619;-72
2024/04/14 06:14:50;;;;;;;;;12.50;8.75;;;;;15.12;59.01;102278.91;5447583;26;69930;-72
2024/04/14 06:17:16;;;;;;;;;10.00;7.50;;;;;15.10;58.25;102283.59;5454214;25;69067;-71
2024/04/14 06:19:41;;;;;;;;;8.00;8.00;;;;;15.10;57.88;102286.28;5457373;26;64351;-72
2024/04/14 06:22:06;;;;;;;;;11.25;11.25;;;;;15.11;59.00;102285.25;5455505;26;63861;-71
2024/04/14 06:24:32;;;;;;;;;9.25;7.75;;;;;15.11;58.95;102287.94;5454916;26;70646;-76
2024/04/14 06:26:57;;;;;;;;;13.75;9.00;;;;;15.09;58.37;102286.44;5452013;25;44002;-71
2024/04/14 06:29:22;;;;;;;;;14.00;8.00;;;;;15.04;58.75;102284.31;5452091;26;63518;-72
2024/04/14 06:31:48;;;;;;;;;8.50;6.25;;;;;15.08;58.44;102293.63;5433731;26;68270;-71
2024/04/14 06:34:13;;;;;;;;;8.75;8.75;;;;;15.07;58.97;102294.63;5454470;26;60218;-76
2024/04/14 06:36:39;;;;;;;;;10.00;6.75;;;;;15.05;59.34;102288.63;5455298;25;71305;-74
2024/04/14 06:39:04;;;;;;;;;13.25;10.00;;;;;15.09;59.57;102302.47;5452383;26;51369;-74
2024/04/14 06:41:29;;;;;;;;;8.25;8.25;;;;;15.08;58.56;102298.97;5446111;26;67928;-72
2024/04/14 06:43:55;;;;;;;;;8.75;8.25;;;;;15.12;59.75;102305.63;5462728;26;71649;-75
2024/04/14 06:46:20;;;;;;;;;8.75;7.50;;;;;15.14;58.98;102300.09;5462115;25;55160;-72
2024/04/14 06:48:45;;;;;;;;;7.00;7.00;;;;;15.16;59.24;102300.78;5455809;26;55288;-76
2024/04/14 06:51:11;;;;;;;;;7.75;6.50;;;;;15.17;58.49;102297.09;5454760;25;64443;-71
2024/04/14 06:53:36;;;;;;;;;10.00;6.00;;;;;15.16;59.66;102300.78;5455186;26;69625;-76
2024/04/14 06:56:03;;;;;;;;;9.50;7.25;;;;;15.16;59.86;102293.56;5447490;26;67679;-71
2024/04/14 06:58:29;;;;;;;;;7.50;7.00;;;;;15.25;59.32;102298.84;5486117;25;43976;-72
2024/04/14 07:00:54;;;;;;;;;5.00;4.75;;;;;15.23;58.97;102291.03;5463159;25;64146;-72
2024/04/14 07:03:20;;;;;;;;;10.00;6.00;;;;;15.29;58.95;102293.00;5451279;25;57711;-72
2024/04/14 07:05:45;;;;;;;;;5.00;4.00;;;;;15.33;58.64;102296.13;5451571;25;64505;-72
2024/04/14 07:08:10;;;;;;;;;9.75;7.00;;;;;15.39;59.58;102297.25;5455539;25;66291;-72
2024/04/14 07:10:36;;;;;;;;;9.25;6.25;;;;;15.41;58.28;102295.25;5463999;25;68402;-78
2024/04/14 07:13:01;;;;;;;;;11.50;6.50;;;;;15.43;59.69;102298.56;5463321;26;44862;-72
2024/04/14 07:15:27;;;;;;;;;5.00;5.00;;;;;15.43;58.68;102287.88;5465859;25;43679;-72
2024/04/14 07:17:52;;;;;;;;;5.75;5.00;;;;;15.44;58.58;102287.69;5460767;26;56689;-74
2024/04/14 07:20:17;;;;;;;;;7.00;6.25;;;;;15.52;58.51;102289.47;5467230;26;66260;-74
2024/04/14 07:22:46;;;;;;;;;8.25;5.75;;;;;15.55;59.53;102282.94;5463208;26;44703;-75
2024/04/14 07:25:11;;;;;;;;;7.75;4.25;;;;;15.55;58.84;102289.13;5460883;26;46282;-76
2024/04/14 07:27:36;;;;;;;;;5.50;5.50;;;;;15.56;58.84;102287.28;5457198;26;66053;-77
2024/04/14 07:30:03;;;;;;;;;8.00;7.75;;;;;15.61;58.55;102284.91;5436470;25;66558;-77
2024/04/14 07:32:28;;;;;;;;;7.50;4.75;;;;;15.63;58.55;102290.06;5454174;26;44408;-74
2024/04/14 07:34:53;;;;;;;;;10.50;7.00;;;;;15.68;58.29;102282.31;5448313;26;68993;-81
2024/04/14 07:37:19;;;;;;;;;7.75;5.00;;;;;15.69;59.37;102283.97;5453200;25;60839;-76
2024/04/14 07:39:44;;;;;;;;;5.75;5.50;;;;;15.69;58.80;102283.97;5451540;25;67227;-77
2024/04/14 07:42:09;;;;;;;;;10.25;6.75;;;;;15.72;59.14;102284.47;5456769;25;57613;-73
2024/04/14 07:44:35;;;;;;;;;6.25;6.00;;;;;15.77;58.47;102278.56;5451635;25;44050;-77
2024/04/14 07:47:00;;;;;;;;;10.50;5.25;;;;;15.80;58.03;102286.22;5451739;26;65025;-76
2024/04/14 07:49:26;;;;;;;;;5.25;4.25;;;;;15.83;58.06;102283.19;5439598;26;65138;-73
2024/04/14 07:51:51;;;;;;;;;4.00;3.75;;;;;15.82;58.00;102286.88;5456099;26;66773;-72
2024/04/14 07:54:16;;;;;;;;;5.75;4.00;;;;;15.87;59.04;102291.69;5452933;25;45975;-72
2024/04/14 07:56:42;;;;;;;;;8.50;5.25;;;;;15.85;58.62;102283.81;5451702;25;64198;-72
2024/04/14 07:59:07;;;;;;;;;4.50;4.50;;;;;15.89;57.71;102295.03;5451310;25;68628;-72
2024/04/14 08:01:33;;;;;;;;;4.75;4.75;;;;;15.87;57.94;102289.00;5453419;25;68605;-78
2024/04/14 08:03:59;;;;;;;;;13.00;6.25;;;;;15.87;58.21;102281.81;5457668;25;44134;-77
2024/04/14 08:06:24;;;;;;;;;8.50;4.00;;;;;15.88;59.17;102285.34;5450945;26;44034;-78
2024/04/14 08:08:49;;;;;;;;;8.00;7.00;;;;;15.91;59.09;102279.63;5452025;26;44483;-75
2024/04/14 08:11:15;;;;;;;;;6.00;5.00;;;;;15.96;58.11;102281.78;5451822;26;60838;-72
2024/04/14 08:13:40;;;;;;;;;6.00;4.25;;;;;16.02;58.19;102281.84;5447849;25;60381;-80
2024/04/14 08:16:06;;;;;;;;;7.75;6.00;;;;;16.07;57.99;102273.31;5451454;25;56490;-77
2024/04/14 08:18:31;;;;;;;;;6.00;5.00;;;;;16.09;57.92;102281.97;5420267;26;43946;-77
2024/04/14 08:21:00;;;;;;;;;5.25;4.25;;;;;16.15;57.39;102275.88;5444677;26;73891;-77
2024/04/14 08:23:26;;;;;;;;;8.00;5.50;;;;;16.17;58.12;102270.31;5410743;26;44390;-77
2024/04/14 08:25:51;;;;;;;;;66.25;52.25;;;;;16.17;57.10;102264.97;5453080;25;43980;-73
2024/04/14 08:28:16;;;;;;;;;12.25;10.25;;;;;16.19;57.40;102268.31;5449442;25;67454;-74
2024/04/14 08:30:42;;;;;;;;;10.75;5.50;;;;;16.23;56.97;102269.59;5450058;25;69741;-75
2024/04/14 08:33:08;;;;;;;;;8.50;5.25;;;;;16.28;56.95;102274.41;5451305;25;44484;-76
2024/04/14 08:35:34;;;;;;;;;6.00;4.00;;;;;16.31;56.72;102268.69;5451030;26;64913;-77
2024/04/14 08:37:59;;;;;;;;;4.50;4.50;;;;;16.37;57.32;102265.25;5444795;26;44123;-75
2024/04/14 08:40:24;;;;;;;;;5.00;3.00;;;;;16.39;57.28;102265.09;5449942;26;71815;-74
2024/04/14 08:42:51;;;;;;;;;7.50;5.00;;;;;16.42;57.53;102262.03;5444841;26;60673;-76
2024/04/14 08:45:17;;;;;;;;;7.50;4.00;;;;;16.46;56.75;102258.78;5453247;25;44020;-76
2024/04/14 08:47:42;;;;;;;;;4.25;4.00;;;;;16.47;56.97;102255.09;5416681;26;67699;-77
2024/04/14 08:50:08;;;;;;;;;3.00;3.00;;;;;16.56;56.94;102257.66;5449564;26;44553;-76
2024/04/14 08:52:34;;;;;;;;;5.00;5.00;;;;;16.62;55.94;102251.56;5420701;26;44465;-77
2024/04/14 08:54:59;;;;;;;;;6.50;3.00;;;;;16.64;56.90;102257.53;5417065;26;67549;-75
2024/04/14 08:57:26;;;;;;;;;3.50;3.50;;;;;16.73;56.57;102260.94;5450218;25;43978;-74
2024/04/14 08:59:51;;;;;;;;;5.00;5.00;;;;;16.71;55.56;102241.56;5415404;26;45677;-76
2024/04/14 09:02:17;;;;;;;;;3.00;3.00;;;;;16.85;56.17;102247.91;5444933;26;53876;-76
2024/04/14 09:04:43;;;;;;;;;6.75;3.00;;;;;17.09;55.55;102252.09;5413193;26;62313;-78
2024/04/14 09:07:09;;;;;;;;;2.25;2.25;;;;;17.23;54.57;102247.69;5450509;26;44005;-77
2024/04/14 09:09:35;;;;;;;;;3.25;3.25;;;;;17.33;56.01;102242.81;5448550;25;44754;-76
2024/04/14 09:12:00;;;;;;;;;5.50;4.00;;;;;17.49;55.22;102257.81;5454919;25;61874;-70
2024/04/14 09:14:26;;;;;;;;;7.75;3.25;;;;;17.70;54.48;102260.66;5453950;26;56917;-70
2024/04/14 09:16:51;;;;;;;;;4.50;3.25;;;;;17.90;54.33;102253.56;5449924;26;44276;-71
2024/04/14 09:19:18;;;;;;;;;6.25;4.50;;;;;18.15;53.88;102249.63;5449324;26;44610;-71
2024/04/14 09:21:46;;;;;;;;;24.25;22.25;;;;;18.41;53.85;102248.94;5422198;26;44506;-71
2024/04/14 09:24:11;;;;;;;;;27.50;23.25;;;;;18.64;52.99;102247.75;5451784;26;44129;-73
2024/04/14 09:26:37;;;;;;;;;22.50;21.00;;;;;18.79;53.23;102248.41;5452347;26;70951;-72
2024/04/14 09:29:03;;;;;;;;;17.25;13.75;;;;;18.96;52.23;102244.53;5389370;26;62093;-71
2024/04/14 09:31:28;;;;;;;;;27.50;27.50;;;;;19.12;51.51;102246.03;5452313;25;44502;-71
2024/04/14 09:33:54;;;;;;;;;12.50;11.00;;;;;19.18;51.12;102248.72;5450657;25;61903;-71
2024/04/14 09:36:23;;;;;;;;;3.00;3.00;;;;;19.32;51.59;102251.44;5450697;26;45545;-73
2024/04/14 09:38:49;;;;;;;;;10.75;9.00;;;;;19.48;50.95;102242.13;5447943;25;44046;-78
2024/04/14 09:41:14;;;;;;;;;6.50;4.00;;;;;19.58;50.91;102237.13;5418920;26;44053;-79
2024/04/14 09:43:40;;;;;;;;;5.00;3.25;;;;;19.69;51.23;102238.38;5455757;26;44082;-77
2024/04/14 09:46:06;;;;;;;;;5.25;4.00;;;;;19.79;50.29;102230.69;5420976;26;44127;-70
2024/04/14 09:48:31;;;;;;;;;4.50;3.00;;;;;19.90;50.20;102228.44;5454023;26;44734;-70
2024/04/14 09:50:57;;;;;;;;;3.00;3.00;;;;;20.01;50.44;102225.06;5449037;26;61023;-73
2024/04/14 09:53:22;;;;;;;;;4.75;4.50;;;;;20.10;49.32;102226.53;5452548;26;63878;-79
2024/04/14 09:55:48;;;;;;;;;4.00;4.00;;;;;20.21;49.95;102229.59;5422676;26;43932;-71
2024/04/14 09:58:13;;;;;;;;;7.00;4.00;;;;;20.26;49.79;102221.69;5454724;25;44693;-70
2024/04/14 10:00:38;;;;;;;;;6.00;4.75;;;;;20.24;48.71;102213.81;5451758;26;70061;-73
2024/04/14 10:03:06;;;;;;;;;7.25;5.50;;;;;20.41;48.46;102225.97;5452993;26;54820;-73
2024/04/14 10:05:32;;;;;;;;;9.00;7.50;;;;;20.47;48.49;102217.03;5451496;26;43942;-70
2024/04/14 10:07:57;;;;;;;;;7.00;5.00;;;;;20.56;48.97;102220.31;5453825;26;45857;-71
2024/04/14 10:10:23;;;;;;;;;10.00;6.75;;;;;20.64;47.64;102226.25;5453588;26;69943;-75
2024/04/14 10:12:52;;;;;;;;;5.25;5.00;;;;;20.68;48.49;102221.28;5453117;26;44046;-73
2024/04/14 10:15:20;;;;;;;;;4.00;4.00;;;;;20.77;47.94;102219.13;5452876;26;47646;-71
2024/04/14 10:17:46;;;;;;;;;5.50;4.00;;;;;20.89;48.05;102222.84;5454765;25;44416;-76
2024/04/14 10:20:15;;;;;;;;;6.50;5.00;;;;;20.99;48.38;102216.13;5453980;26;44010;-76
2024/04/14 10:22:41;;;;;;;;;6.75;4.00;;;;;21.10;47.86;102207.34;5452064;25;44115;-72
2024/04/14 10:25:20;;;;;;;;;13.75;9.75;;;;;21.18;46.64;102212.47;5454772;25;44070;-68
2024/04/14 10:27:45;;;;;;;;;9.75;5.75;;;;;21.20;46.93;102207.66;5450180;26;45650;-73
2024/04/14 10:30:23;;;;;;;;;6.75;4.00;;;;;21.27;46.69;102215.72;5453628;25;54067;-71
2024/04/14 10:33:01;;;;;;;;;7.75;5.75;;;;;21.34;45.86;102219.19;5447630;25;44011;-69
2024/04/14 10:35:26;;;;;;;;;12.50;6.50;;;;;21.39;46.24;102216.63;5452900;25;44254;-71
2024/04/14 10:37:55;;;;;;;;;4.00;4.00;;;;;21.50;45.59;102217.75;5454001;25;72482;-71
2024/04/14 10:40:20;;;;;;;;;5.00;4.75;;;;;21.50;45.21;102203.47;5454817;26;43899;-72
2024/04/14 10:42:46;;;;;;;;;11.75;9.50;;;;;21.48;45.96;102206.38;5465349;25;68408;-76
2024/04/14 10:45:11;;;;;;;;;10.50;6.00;;;;;21.54;45.55;102201.97;5470336;25;43609;-71
2024/04/14 10:47:36;;;;;;;;;7.00;5.75;;;;;21.54;45.26;102191.19;5469164;26;43765;-75
2024/04/14 10:50:02;;;;;;;;;3.50;3.50;;;;;21.76;46.61;102201.56;5467818;25;69464;-74
2024/04/14 10:52:27;;;;;;;;;96.50;92.75;;;;;21.87;45.58;102191.91;5469235;26;54947;-73
2024/04/14 10:54:53;;;;;;;;;193.33;178.67;;;;;22.11;45.36;102192.88;5465825;25;72083;-70
2024/04/14 10:57:18;;;;;;;;;62.75;50.00;;;;;22.36;44.13;102184.66;5466437;26;68238;-74
2024/04/14 10:59:45;;;;;;;;;16.00;13.50;;;;;22.60;43.68;102173.94;5466891;26;58204;-72
2024/04/14 11:02:10;;;;;;;;;11.00;10.00;;;;;22.80;43.86;102167.41;5455102;26;67459;-69
2024/04/14 11:04:36;;;;;;;;;59.50;44.00;;;;;22.95;43.20;102166.97;5455099;25;44129;-70
2024/04/14 11:07:01;;;;;;;;;14.25;12.75;;;;;23.08;44.37;102164.03;5416516;26;70454;-70
2024/04/14 11:09:26;;;;;;;;;5.25;5.00;;;;;23.19;43.28;102157.00;5458836;26;43964;-70
2024/04/14 11:11:52;;;;;;;;;5.25;4.00;;;;;23.34;44.92;102151.13;5451207;25;63741;-71
2024/04/14 11:14:21;;;;;;;;;65.25;51.25;;;;;23.49;42.68;102147.13;5453093;25;43892;-69